createdAt,value
2023-05-01T00:00:23.914Z,11.26
2023-05-01T00:03:28.314Z,11.23
2023-05-01T00:06:30.121Z,11.23
2023-05-01T00:09:32.355Z,11.23
2023-05-01T00:12:33.878Z,11.23
2023-05-01T00:15:35.533Z,11.19
2023-05-01T00:18:37.633Z,11.26
2023-05-01T00:21:39.155Z,11.28
2023-05-01T00:24:40.912Z,11.28
2023-05-01T00:27:42.373Z,11.26
2023-05-01T00:30:45.401Z,11.25
2023-05-01T00:33:46.864Z,11.23
2023-05-01T00:36:49.760Z,11.24
2023-05-01T00:39:51.586Z,11.28
2023-05-01T00:42:54.239Z,11.29
2023-05-01T00:45:55.863Z,11.23
2023-05-01T00:48:58.398Z,11.20
2023-05-01T00:52:00.078Z,11.18
2023-05-01T00:55:01.781Z,11.17
2023-05-01T00:58:04.649Z,11.15
2023-05-01T01:01:08.726Z,11.10
2023-05-01T01:04:10.220Z,11.08
2023-05-01T01:07:21.947Z,11.06
2023-05-01T01:10:31.044Z,11.05
2023-05-01T01:13:35.005Z,11.00
2023-05-01T01:16:54.846Z,10.97
2023-05-01T01:20:24.728Z,10.96
2023-05-01T01:23:41.820Z,10.97
2023-05-01T01:26:58.723Z,10.97
2023-05-01T01:30:25.879Z,10.92
2023-05-01T01:33:45.566Z,10.85
2023-05-01T01:37:12.688Z,10.83
2023-05-01T01:40:16.798Z,10.82
2023-05-01T01:43:20.145Z,10.81
2023-05-01T01:46:24.042Z,10.81
2023-05-01T01:49:27.855Z,10.84
2023-05-01T01:52:31.332Z,10.82
2023-05-01T01:55:35.842Z,10.79
2023-05-01T01:58:40.602Z,10.78
2023-05-01T02:01:44.634Z,10.72
2023-05-01T02:04:48.057Z,10.67
2023-05-01T02:07:51.315Z,10.70
2023-05-01T02:11:01.740Z,10.66
2023-05-01T02:14:05.934Z,10.67
2023-05-01T02:17:09.840Z,10.67
2023-05-01T02:20:13.489Z,10.63
2023-05-01T02:23:15.065Z,10.63
2023-05-01T02:26:18.199Z,10.64
2023-05-01T02:29:19.653Z,10.65
2023-05-01T02:32:21.186Z,10.66
2023-05-01T02:35:23.549Z,10.61
2023-05-01T02:38:25.172Z,10.62
2023-05-01T02:41:28.228Z,10.62
2023-05-01T02:44:38.454Z,10.60
2023-05-01T02:47:44.040Z,10.62
2023-05-01T02:50:46.809Z,10.61
2023-05-01T02:53:48.501Z,10.61
2023-05-01T02:56:55.142Z,10.59
2023-05-01T02:59:56.943Z,10.58
2023-05-01T03:02:58.702Z,10.60
2023-05-01T03:06:00.566Z,10.56
2023-05-01T03:09:02.836Z,10.57
2023-05-01T03:12:04.764Z,10.57
2023-05-01T03:15:06.752Z,10.58
2023-05-01T03:18:08.315Z,10.56
2023-05-01T03:21:10.204Z,10.58
2023-05-01T03:24:12.322Z,10.65
2023-05-01T03:27:14.202Z,10.60
2023-05-01T03:30:15.874Z,10.56
2023-05-01T03:33:18.395Z,10.58
2023-05-01T03:36:20.106Z,10.54
2023-05-01T03:39:23.156Z,10.54
2023-05-01T03:42:43.085Z,10.56
2023-05-01T03:45:53.106Z,10.55
2023-05-01T03:48:54.667Z,10.56
2023-05-01T03:51:56.698Z,10.57
2023-05-01T03:54:58.176Z,10.56
2023-05-01T03:58:13.213Z,10.48
2023-05-01T04:01:15.199Z,10.47
2023-05-01T04:04:18.853Z,10.45
2023-05-01T04:07:25.962Z,10.42
2023-05-01T04:10:27.627Z,10.40
2023-05-01T04:13:34.092Z,10.44
2023-05-01T04:16:37.318Z,10.42
2023-05-01T04:19:39.157Z,10.42
2023-05-01T04:22:40.712Z,10.45
2023-05-01T04:25:42.274Z,10.49
2023-05-01T04:28:47.547Z,10.51
2023-05-01T04:31:52.245Z,10.46
2023-05-01T04:34:54.678Z,10.36
2023-05-01T04:37:56.653Z,10.38
2023-05-01T04:40:58.129Z,10.42
2023-05-01T04:43:59.590Z,10.40
2023-05-01T04:47:02.911Z,10.45
2023-05-01T04:50:05.015Z,10.44
2023-05-01T04:53:06.727Z,10.52
2023-05-01T04:56:09.704Z,10.58
2023-05-01T04:59:11.809Z,10.63
2023-05-01T05:02:13.300Z,10.70
2023-05-01T05:05:16.133Z,10.78
2023-05-01T05:08:17.661Z,10.83
2023-05-01T05:11:23.212Z,10.87
2023-05-01T05:14:32.999Z,10.88
2023-05-01T05:17:35.374Z,10.84
2023-05-01T05:20:40.234Z,10.86
2023-05-01T05:23:41.806Z,10.89
2023-05-01T05:26:43.425Z,10.91
2023-05-01T05:29:45.308Z,10.93
2023-05-01T05:32:47.636Z,10.97
2023-05-01T05:35:49.304Z,11.00
2023-05-01T05:38:50.937Z,11.03
2023-05-01T05:41:54.008Z,11.12
2023-05-01T05:44:55.817Z,11.19
2023-05-01T05:47:57.363Z,11.32
2023-05-01T05:51:00.818Z,11.42
2023-05-01T05:54:02.512Z,11.47
2023-05-01T05:57:08.066Z,11.44
2023-05-01T06:00:14.169Z,11.48
2023-05-01T06:03:21.874Z,11.52
2023-05-01T06:06:26.446Z,11.49
2023-05-01T06:09:28.069Z,11.53
2023-05-01T06:12:29.815Z,11.58
2023-05-01T06:15:31.936Z,11.65
2023-05-01T06:18:33.631Z,11.61
2023-05-01T06:21:35.419Z,11.66
2023-05-01T06:24:37.514Z,11.70
2023-05-01T06:27:39.236Z,11.74
2023-05-01T06:30:40.712Z,11.84
2023-05-01T06:33:42.185Z,11.87
2023-05-01T06:37:07.700Z,11.84
2023-05-01T06:40:10.499Z,11.78
2023-05-01T06:43:13.040Z,11.78
2023-05-01T06:46:14.613Z,11.83
2023-05-01T06:49:16.166Z,11.91
2023-05-01T06:52:17.860Z,11.94
2023-05-01T06:55:19.453Z,12.07
2023-05-01T06:58:23.909Z,12.23
2023-05-01T07:01:26.420Z,12.33
2023-05-01T07:04:28.004Z,12.44
2023-05-01T07:07:30.906Z,12.57
2023-05-01T07:10:32.728Z,12.69
2023-05-01T07:13:34.198Z,12.72
2023-05-01T07:16:35.728Z,12.67
2023-05-01T07:19:37.385Z,12.51
2023-05-01T07:22:38.844Z,12.41
2023-05-01T07:25:41.371Z,12.37
2023-05-01T07:28:42.926Z,12.42
2023-05-01T07:31:46.266Z,12.41
2023-05-01T07:34:47.894Z,12.30
2023-05-01T07:37:51.796Z,12.16
2023-05-01T07:40:53.818Z,12.22
2023-05-01T07:43:55.363Z,12.25
2023-05-01T07:47:02.820Z,12.24
2023-05-01T07:50:04.812Z,12.29
2023-05-01T07:53:06.299Z,12.28
2023-05-01T07:56:09.397Z,12.38
2023-05-01T07:59:11.156Z,12.41
2023-05-01T08:02:13.765Z,12.45
2023-05-01T08:05:15.494Z,12.40
2023-05-01T08:08:20.532Z,12.41
2023-05-01T08:11:22.129Z,12.49
2023-05-01T08:14:23.654Z,12.63
2023-05-01T08:17:25.163Z,12.79
2023-05-01T08:20:26.656Z,12.90
2023-05-01T08:23:28.202Z,12.95
2023-05-01T08:26:30.262Z,13.04
2023-05-01T08:29:31.955Z,13.09
2023-05-01T08:32:33.709Z,13.06
2023-05-01T08:35:35.230Z,13.01
2023-05-01T08:38:37.460Z,12.98
2023-05-01T08:41:39.844Z,12.97
2023-05-01T08:44:42.334Z,13.00
2023-05-01T08:47:44.946Z,13.06
2023-05-01T08:50:47.882Z,13.11
2023-05-01T08:53:52.176Z,13.21
2023-05-01T08:56:54.748Z,13.31
2023-05-01T08:59:58.165Z,13.41
2023-05-01T09:03:03.084Z,13.59
2023-05-01T09:06:04.996Z,13.84
2023-05-01T09:09:06.614Z,14.14
2023-05-01T09:12:25.241Z,14.62
2023-05-01T09:15:27.581Z,15.11
2023-05-01T09:18:29.181Z,15.37
2023-05-01T09:21:31.970Z,15.62
2023-05-01T09:24:34.000Z,15.94
2023-05-01T09:27:36.613Z,16.13
2023-05-01T09:30:39.277Z,16.26
2023-05-01T09:33:54.014Z,16.36
2023-05-01T09:36:56.063Z,16.41
2023-05-01T09:40:11.040Z,16.36
2023-05-01T09:43:12.635Z,16.39
2023-05-01T09:46:14.238Z,16.44
2023-05-01T09:49:15.931Z,16.27
2023-05-01T09:52:17.410Z,16.16
2023-05-01T09:55:19.277Z,16.24
2023-05-01T09:58:28.245Z,16.27
2023-05-01T10:01:44.338Z,16.42
2023-05-01T10:04:45.821Z,16.60
2023-05-01T10:07:58.715Z,16.59
2023-05-01T10:11:03.426Z,16.63
2023-05-01T10:14:09.589Z,16.97
2023-05-01T10:17:19.890Z,17.20
2023-05-01T10:20:21.879Z,17.46
2023-05-01T10:23:25.289Z,17.67
2023-05-01T10:26:27.525Z,17.87
2023-05-01T10:29:35.389Z,17.97
2023-05-01T10:32:38.695Z,17.99
2023-05-01T10:35:44.603Z,17.95
2023-05-01T10:38:48.424Z,17.67
2023-05-01T10:41:59.178Z,17.60
2023-05-01T10:45:30.397Z,17.69
2023-05-01T10:48:52.825Z,17.73
2023-05-01T10:51:58.455Z,17.38
2023-05-01T10:55:32.213Z,17.36
2023-05-01T10:58:39.628Z,17.35
2023-05-01T11:01:43.133Z,17.42
2023-05-01T11:04:50.938Z,17.49
2023-05-01T11:08:32.252Z,17.73
2023-05-01T11:11:33.750Z,18.31
2023-05-01T11:14:53.591Z,18.78
2023-05-01T11:17:56.038Z,19.28
2023-05-01T11:20:58.286Z,19.73
2023-05-01T11:24:04.108Z,19.97
2023-05-01T11:27:06.805Z,19.75
2023-05-01T11:30:09.121Z,19.88
2023-05-01T11:33:11.350Z,19.77
2023-05-01T11:36:14.140Z,19.56
2023-05-01T11:39:19.427Z,19.54
2023-05-01T11:42:22.641Z,19.59
2023-05-01T11:45:24.268Z,20.18
2023-05-01T11:48:26.399Z,20.24
2023-05-01T11:51:29.065Z,20.31
2023-05-01T11:54:31.003Z,20.42
2023-05-01T11:57:53.763Z,20.19
2023-05-01T12:00:55.278Z,19.85
2023-05-01T12:03:57.278Z,19.93
2023-05-01T12:06:58.975Z,20.17
2023-05-01T12:10:00.718Z,20.32
2023-05-01T12:13:03.994Z,20.99
2023-05-01T12:16:05.847Z,21.35
2023-05-01T12:19:08.081Z,21.84
2023-05-01T12:22:09.861Z,21.85
2023-05-01T12:25:11.486Z,21.12
2023-05-01T12:28:19.405Z,20.65
2023-05-01T12:31:21.408Z,20.82
2023-05-01T12:34:29.963Z,21.14
2023-05-01T12:37:32.316Z,21.28
2023-05-01T12:40:33.961Z,21.06
2023-05-01T12:43:38.818Z,20.66
2023-05-01T12:46:40.416Z,20.65
2023-05-01T12:49:42.124Z,20.67
2023-05-01T12:52:43.785Z,20.00
2023-05-01T12:55:47.292Z,19.12
2023-05-01T12:58:49.244Z,18.62
2023-05-01T13:02:01.350Z,18.18
2023-05-01T13:05:06.884Z,17.95
2023-05-01T13:08:08.456Z,18.05
2023-05-01T13:11:14.836Z,18.24
2023-05-01T13:14:16.743Z,18.42
2023-05-01T13:17:31.776Z,18.41
2023-05-01T13:20:33.398Z,18.23
2023-05-01T13:23:36.474Z,17.77
2023-05-01T13:26:38.196Z,17.72
2023-05-01T13:29:42.386Z,17.59
2023-05-01T13:32:46.134Z,17.77
2023-05-01T13:35:47.576Z,18.02
2023-05-01T13:38:53.961Z,18.45
2023-05-01T13:41:55.750Z,18.53
2023-05-01T13:44:57.750Z,18.36
2023-05-01T13:47:59.348Z,17.99
2023-05-01T13:51:01.303Z,17.77
2023-05-01T13:54:04.004Z,17.81
2023-05-01T13:57:05.487Z,17.97
2023-05-01T14:00:14.659Z,18.37
2023-05-01T14:03:16.675Z,18.76
2023-05-01T14:06:20.999Z,18.95
2023-05-01T14:09:22.933Z,19.47
2023-05-01T14:12:28.106Z,20.03
2023-05-01T14:15:29.747Z,20.08
2023-05-01T14:18:31.215Z,20.18
2023-05-01T14:21:40.406Z,20.38
2023-05-01T14:24:41.947Z,21.13
2023-05-01T14:27:43.398Z,21.19
2023-05-01T14:30:45.028Z,20.74
2023-05-01T14:33:47.286Z,20.32
2023-05-01T14:36:48.797Z,20.38
2023-05-01T14:39:50.495Z,20.97
2023-05-01T14:42:53.015Z,20.43
2023-05-01T14:45:55.071Z,19.47
2023-05-01T14:48:57.551Z,18.76
2023-05-01T14:51:59.066Z,18.67
2023-05-01T14:55:00.789Z,18.59
2023-05-01T14:58:02.445Z,18.71
2023-05-01T15:01:04.327Z,18.88
2023-05-01T15:04:07.727Z,18.83
2023-05-01T15:07:09.319Z,18.94
2023-05-01T15:10:11.054Z,18.97
2023-05-01T15:13:12.750Z,19.26
2023-05-01T15:16:14.240Z,19.91
2023-05-01T15:19:15.734Z,19.99
2023-05-01T15:22:17.362Z,19.85
2023-05-01T15:25:18.928Z,19.35
2023-05-01T15:28:20.549Z,18.52
2023-05-01T15:31:22.671Z,17.67
2023-05-01T15:34:24.313Z,16.65
2023-05-01T15:37:25.985Z,15.92
2023-05-01T15:40:27.525Z,15.66
2023-05-01T15:43:29.014Z,15.37
2023-05-01T15:46:30.547Z,14.98
2023-05-01T15:49:32.204Z,14.85
2023-05-01T15:52:33.600Z,15.09
2023-05-01T15:55:35.096Z,15.23
2023-05-01T15:58:36.571Z,15.29
2023-05-01T16:01:38.067Z,15.32
2023-05-01T16:04:39.652Z,15.29
2023-05-01T16:07:41.282Z,15.64
2023-05-01T16:10:42.774Z,16.03
2023-05-01T16:13:44.467Z,16.53
2023-05-01T16:16:46.139Z,17.20
2023-05-01T16:19:47.919Z,17.48
2023-05-01T16:22:49.640Z,17.31
2023-05-01T16:25:51.126Z,17.36
2023-05-01T16:28:57.884Z,17.39
2023-05-01T16:31:59.375Z,17.28
2023-05-01T16:35:01.524Z,17.65
2023-05-01T16:38:03.021Z,18.15
2023-05-01T16:41:04.648Z,18.17
2023-05-01T16:44:06.148Z,17.80
2023-05-01T16:47:11.800Z,18.60
2023-05-01T16:50:13.998Z,19.92
2023-05-01T16:53:15.721Z,20.64
2023-05-01T16:56:17.349Z,19.51
2023-05-01T16:59:18.938Z,18.49
2023-05-01T17:02:20.477Z,17.67
2023-05-01T17:05:22.058Z,17.23
2023-05-01T17:08:23.611Z,17.14
2023-05-01T17:11:25.220Z,16.83
2023-05-01T17:14:28.735Z,16.50
2023-05-01T17:17:30.283Z,16.29
2023-05-01T17:20:31.820Z,16.14
2023-05-01T17:23:33.333Z,15.93
2023-05-01T17:26:34.899Z,15.73
2023-05-01T17:29:36.469Z,15.35
2023-05-01T17:32:38.032Z,14.90
2023-05-01T17:35:39.610Z,14.75
2023-05-01T17:38:41.235Z,14.59
2023-05-01T17:41:42.924Z,14.36
2023-05-01T17:44:44.594Z,14.15
2023-05-01T17:47:46.707Z,13.97
2023-05-01T17:50:48.709Z,13.80
2023-05-01T17:53:50.364Z,13.75
2023-05-01T17:56:51.897Z,13.90
2023-05-01T17:59:53.319Z,13.66
2023-05-01T18:02:55.031Z,13.60
2023-05-01T18:05:56.752Z,13.47
2023-05-01T18:08:58.250Z,13.40
2023-05-01T18:12:00.141Z,13.38
2023-05-01T18:15:01.717Z,13.33
2023-05-01T18:18:03.519Z,13.29
2023-05-01T18:21:05.201Z,13.25
2023-05-01T18:24:06.754Z,13.12
2023-05-01T18:27:09.023Z,13.08
2023-05-01T18:30:11.000Z,13.01
2023-05-01T18:33:12.965Z,12.92
2023-05-01T18:36:14.418Z,12.63
2023-05-01T18:39:16.394Z,12.61
2023-05-01T18:42:18.346Z,12.66
2023-05-01T18:45:19.889Z,12.67
2023-05-01T18:48:21.379Z,12.64
2023-05-01T18:51:22.837Z,12.56
2023-05-01T18:54:24.374Z,12.62
2023-05-01T18:57:27.666Z,12.62
2023-05-01T19:00:29.712Z,12.39
2023-05-01T19:03:31.443Z,12.31
2023-05-01T19:06:33.565Z,12.39
2023-05-01T19:09:35.167Z,12.30
2023-05-01T19:12:37.499Z,12.25
2023-05-01T19:15:38.981Z,12.30
2023-05-01T19:18:40.492Z,12.35
2023-05-01T19:21:41.974Z,12.37
2023-05-01T19:24:43.468Z,12.32
2023-05-01T19:27:45.659Z,12.36
2023-05-01T19:30:47.076Z,12.32
2023-05-01T19:33:48.532Z,12.34
2023-05-01T19:36:54.801Z,12.32
2023-05-01T19:39:56.496Z,12.29
2023-05-01T19:42:58.260Z,12.25
2023-05-01T19:45:59.793Z,12.22
2023-05-01T19:49:01.344Z,12.20
2023-05-01T19:52:03.087Z,12.16
2023-05-01T19:55:05.229Z,12.02
2023-05-01T19:58:06.746Z,11.98
2023-05-01T20:01:09.276Z,11.87
2023-05-01T20:04:11.643Z,11.91
2023-05-01T20:07:13.191Z,11.94
2023-05-01T20:10:14.805Z,11.93
2023-05-01T20:13:16.266Z,11.98
2023-05-01T20:16:17.785Z,11.93
2023-05-01T20:19:19.790Z,11.89
2023-05-01T20:22:21.270Z,11.86
2023-05-01T20:25:23.365Z,11.87
2023-05-01T20:28:24.946Z,11.87
2023-05-01T20:31:26.468Z,11.88
2023-05-01T20:34:28.041Z,11.85
2023-05-01T20:37:29.524Z,11.82
2023-05-01T20:40:31.896Z,11.76
2023-05-01T20:43:33.354Z,11.74
2023-05-01T20:46:34.944Z,11.74
2023-05-01T20:49:36.477Z,11.67
2023-05-01T20:52:38.097Z,11.67
2023-05-01T20:55:39.658Z,11.65
2023-05-01T20:58:41.131Z,11.61
2023-05-01T21:01:42.669Z,11.64
2023-05-01T21:04:46.169Z,11.62
2023-05-01T21:07:48.287Z,11.54
2023-05-01T21:10:49.724Z,11.48
2023-05-01T21:13:51.307Z,11.42
2023-05-01T21:16:53.482Z,11.38
2023-05-01T21:19:55.075Z,11.35
2023-05-01T21:22:56.572Z,11.28
2023-05-01T21:25:58.072Z,11.21
2023-05-01T21:28:59.881Z,11.13
2023-05-01T21:32:04.063Z,11.12
2023-05-01T21:35:06.923Z,11.10
2023-05-01T21:38:09.349Z,11.04
2023-05-01T21:41:13.871Z,11.02
2023-05-01T21:44:15.755Z,11.07
2023-05-01T21:47:17.330Z,11.09
2023-05-01T21:50:21.166Z,11.04
2023-05-01T21:53:22.799Z,10.91
2023-05-01T21:56:24.843Z,10.85
2023-05-01T21:59:34.877Z,10.89
2023-05-01T22:02:42.895Z,10.85
2023-05-01T22:05:44.613Z,10.77
2023-05-01T22:08:46.076Z,10.77
2023-05-01T22:11:47.763Z,10.75
2023-05-01T22:14:49.225Z,10.70
2023-05-01T22:17:50.772Z,10.62
2023-05-01T22:20:52.522Z,10.57
2023-05-01T22:23:55.359Z,10.47
2023-05-01T22:26:57.107Z,10.39
2023-05-01T22:29:58.687Z,10.33
2023-05-01T22:33:00.551Z,10.21
2023-05-01T22:36:02.240Z,10.07
2023-05-01T22:39:04.166Z,10.10
2023-05-01T22:42:05.818Z,10.10
2023-05-01T22:45:08.396Z,10.05
2023-05-01T22:48:10.638Z,10.03
2023-05-01T22:51:12.253Z,10.05
2023-05-01T22:54:13.738Z,10.10
2023-05-01T22:57:15.383Z,10.19
2023-05-01T23:00:17.161Z,10.18
2023-05-01T23:03:18.863Z,10.15
2023-05-01T23:06:20.398Z,10.15
2023-05-01T23:09:21.860Z,10.16
2023-05-01T23:12:23.596Z,10.16
2023-05-01T23:15:25.963Z,10.21
2023-05-01T23:18:33.057Z,10.20
2023-05-01T23:21:34.497Z,10.20
2023-05-01T23:24:41.435Z,10.23
2023-05-01T23:27:48.331Z,10.20
2023-05-01T23:30:57.305Z,10.20
2023-05-01T23:34:02.137Z,10.23
2023-05-01T23:37:03.598Z,10.24
2023-05-01T23:40:06.654Z,10.22
2023-05-01T23:43:08.898Z,10.23
2023-05-01T23:46:10.510Z,10.21
2023-05-01T23:49:12.532Z,10.18
2023-05-01T23:52:14.219Z,10.18
2023-05-01T23:55:15.869Z,10.15
2023-05-01T23:58:17.377Z,10.10
